Time;durP1;ratioP1;P1;durP2;ratioP2;P2;SDS_P1;SDS_P2;PMS_P1;PMS_P2;Temp;Humidity;BMP_temperature;BMP_pressure;BME280_temperature;BME280_humidity;BME280_pressure;Samples;Min_cycle;Max_cycle;Signal;HPM_P1;HPM_P2
2022/03/19 00:01:13;;;;;;;8.43;3.83;;;13.20;72.60;;;;;;5012319;28;20036;-77
2022/03/19 00:03:40;;;;;;;4.70;3.33;;;13.20;72.60;;;;;;5012522;28;20029;-77
2022/03/19 00:06:07;;;;;;;6.97;3.58;;;13.20;72.60;;;;;;5012725;28;20064;-77
2022/03/19 00:08:32;;;;;;;6.30;3.28;;;13.20;72.70;;;;;;4980478;28;20041;-77
2022/03/19 00:11:00;;;;;;;4.78;3.20;;;13.20;72.70;;;;;;5012886;28;20104;-77
2022/03/19 00:13:26;;;;;;;5.45;3.42;;;13.10;72.60;;;;;;4996561;28;20049;-77
2022/03/19 00:15:52;;;;;;;7.13;3.70;;;13.10;72.70;;;;;;5011517;28;20037;-78
2022/03/19 00:18:18;;;;;;;5.78;3.45;;;13.10;72.70;;;;;;4995723;28;20060;-78
2022/03/19 00:20:44;;;;;;;4.95;3.47;;;13.10;73.40;;;;;;5012724;28;20041;-78
2022/03/19 00:23:10;;;;;;;5.38;3.45;;;13.00;72.70;;;;;;5010186;28;20034;-78
2022/03/19 00:25:37;;;;;;;6.57;3.58;;;13.00;72.80;;;;;;5025503;28;20159;-77
2022/03/19 00:28:03;;;;;;;4.07;2.97;;;13.00;72.80;;;;;;4996207;28;20105;-78
2022/03/19 00:30:30;;;;;;;5.93;3.40;;;13.00;72.90;;;;;;5012947;28;20126;-79
2022/03/19 00:32:56;;;;;;;4.57;3.08;;;12.90;72.80;;;;;;5012066;28;20029;-78
2022/03/19 00:35:22;;;;;;;5.55;3.25;;;12.90;72.90;;;;;;5012147;28;20041;-78
2022/03/19 00:37:50;;;;;;;4.43;3.00;;;12.90;72.90;;;;;;4995837;28;20462;-77
2022/03/19 00:40:19;;;;;;;5.47;3.33;;;12.90;72.90;;;;;;4996278;28;20018;-77
2022/03/19 00:42:45;;;;;;;4.80;3.10;;;12.90;72.90;;;;;;5014396;28;20030;-77
2022/03/19 00:45:12;;;;;;;4.82;3.22;;;12.90;73.00;;;;;;4999001;28;20083;-77
2022/03/19 00:47:37;;;;;;;4.90;3.33;;;12.80;73.00;;;;;;5011475;28;20045;-77
2022/03/19 00:50:05;;;;;;;4.18;2.90;;;12.80;73.70;;;;;;5012739;28;20474;-78
2022/03/19 00:52:32;;;;;;;4.68;2.95;;;12.80;73.10;;;;;;5009246;28;20474;-78
2022/03/19 00:54:57;;;;;;;4.28;2.85;;;12.70;73.10;;;;;;5029468;28;20025;-78
2022/03/19 00:57:24;;;;;;;4.40;2.90;;;12.70;73.10;;;;;;4979869;28;20482;-81
2022/03/19 00:59:50;;;;;;;4.57;3.10;;;12.70;73.10;;;;;;5007054;28;20076;-78
2022/03/19 01:02:16;;;;;;;5.97;2.78;;;12.70;73.10;;;;;;4992785;28;20034;-77
2022/03/19 01:04:41;;;;;;;4.68;2.90;;;12.70;73.10;;;;;;4978333;28;20091;-78
2022/03/19 01:07:07;;;;;;;3.75;2.60;;;12.60;73.20;;;;;;5010375;28;20037;-78
2022/03/19 01:09:33;;;;;;;4.45;2.70;;;12.60;73.20;;;;;;5004371;28;20125;-78
2022/03/19 01:11:59;;;;;;;4.85;2.80;;;12.60;73.20;;;;;;5006935;28;20466;-78
2022/03/19 01:14:24;;;;;;;6.63;3.13;;;12.60;73.30;;;;;;5006850;28;20120;-78
2022/03/19 01:16:50;;;;;;;5.28;2.80;;;12.60;73.30;;;;;;5003547;28;20042;-77
2022/03/19 01:19:52;;;;;;;4.35;2.58;;;12.50;73.40;;;;;;5019368;28;20025;-77
2022/03/19 01:22:02;;;;;;;3.75;2.65;;;12.50;73.40;;;;;;5001207;28;20475;-79
2022/03/19 01:24:28;;;;;;;4.25;2.85;;;12.50;73.40;;;;;;5015561;28;20101;-78
2022/03/19 01:26:54;;;;;;;4.10;2.65;;;12.40;73.40;;;;;;5004641;28;20037;-78
2022/03/19 01:29:20;;;;;;;5.75;3.00;;;12.50;73.50;;;;;;4997033;28;20033;-78
2022/03/19 01:31:46;;;;;;;4.93;2.65;;;12.40;73.50;;;;;;4980662;28;20029;-78
2022/03/19 01:34:11;;;;;;;6.18;3.17;;;12.40;73.50;;;;;;4997147;28;20030;-77
2022/03/19 01:36:37;;;;;;;5.35;3.00;;;12.40;73.50;;;;;;5017727;28;20057;-79
2022/03/19 01:39:03;;;;;;;5.40;3.00;;;12.40;73.50;;;;;;5002725;28;20032;-78
2022/03/19 01:41:28;;;;;;;5.88;3.13;;;12.40;73.60;;;;;;5033334;28;20464;-78
2022/03/19 01:43:54;;;;;;;4.72;3.20;;;12.30;73.60;;;;;;5000109;28;20442;-78
2022/03/19 01:46:20;;;;;;;4.63;3.03;;;12.30;73.60;;;;;;4982435;28;20038;-79
2022/03/19 01:48:45;;;;;;;5.97;3.15;;;12.30;73.60;;;;;;5006760;28;20104;-78
2022/03/19 01:51:12;;;;;;;4.88;2.90;;;12.30;73.70;;;;;;5023500;28;20390;-77
2022/03/19 01:53:38;;;;;;;5.72;2.97;;;12.20;73.70;;;;;;4990410;28;20076;-77
2022/03/19 01:56:04;;;;;;;5.00;3.00;;;12.20;73.60;;;;;;4997750;28;20532;-78
2022/03/19 01:58:31;;;;;;;6.28;3.28;;;12.20;73.70;;;;;;4977092;28;20104;-78
2022/03/19 02:00:57;;;;;;;5.43;3.22;;;12.20;73.70;;;;;;4985344;28;20033;-78
2022/03/19 02:03:24;;;;;;;6.25;3.22;;;12.10;73.70;;;;;;5012321;28;20521;-78
2022/03/19 02:05:49;;;;;;;4.80;2.78;;;12.20;73.70;;;;;;5020190;28;20128;-79
2022/03/19 02:08:18;;;;;;;6.63;3.22;;;12.10;73.70;;;;;;5000182;28;20128;-78
2022/03/19 02:10:44;;;;;;;5.82;3.28;;;12.10;73.80;;;;;;5011392;28;20034;-77
2022/03/19 02:13:11;;;;;;;5.75;2.85;;;12.10;73.80;;;;;;5032330;28;20021;-78
2022/03/19 02:15:36;;;;;;;5.65;3.25;;;12.10;73.80;;;;;;4998664;28;20040;-78
2022/03/19 02:18:02;;;;;;;5.18;3.20;;;12.10;73.90;;;;;;5001521;28;20044;-78
2022/03/19 02:20:34;;;;;;;6.43;3.47;;;12.00;73.80;;;;;;5001675;28;20040;-79
2022/03/19 02:25:47;;;;;;;5.25;3.05;;;12.00;73.80;;;;;;5012300;28;20444;-79
2022/03/19 02:28:13;;;;;;;5.95;3.67;;;12.00;73.80;;;;;;5013862;28;20032;-78
2022/03/19 02:30:42;;;;;;;5.15;3.58;;;11.90;73.70;;;;;;5002284;28;20393;-78
2022/03/19 02:33:09;;;;;;;5.28;3.38;;;11.90;73.70;;;;;;5002622;28;20029;-79
2022/03/19 02:35:35;;;;;;;4.82;3.63;;;11.90;73.70;;;;;;5031936;28;20037;-79
2022/03/19 02:38:01;;;;;;;5.95;3.22;;;11.90;73.70;;;;;;5020569;28;20111;-79
2022/03/19 02:40:27;;;;;;;6.38;3.70;;;11.80;73.70;;;;;;5013300;28;20068;-79
2022/03/19 02:42:56;;;;;;;6.20;3.75;;;11.80;73.60;;;;;;4998636;28;20032;-78
2022/03/19 02:45:24;;;;;;;6.50;3.70;;;11.80;73.70;;;;;;5002402;28;20029;-79
2022/03/19 02:47:59;;;;;;;6.82;3.67;;;11.80;73.70;;;;;;5012942;28;20536;-79
2022/03/19 02:50:33;;;;;;;6.50;4.00;;;11.80;73.70;;;;;;4998658;28;20036;-79
2022/03/19 02:53:01;;;;;;;6.20;4.20;;;11.70;73.70;;;;;;5000810;28;20030;-79
2022/03/19 02:55:32;;;;;;;5.32;3.75;;;11.70;73.60;;;;;;5003827;28;20074;-79
2022/03/19 02:57:58;;;;;;;6.10;3.42;;;11.70;73.70;;;;;;4998418;28;20034;-78
2022/03/19 03:00:23;;;;;;;6.32;3.70;;;11.70;73.60;;;;;;5022570;28;20109;-79
2022/03/19 03:02:49;;;;;;;4.97;3.92;;;11.70;73.70;;;;;;5031989;28;20021;-78
2022/03/19 03:05:15;;;;;;;6.43;3.85;;;11.60;73.70;;;;;;5012198;28;20061;-78
2022/03/19 03:07:41;;;;;;;6.13;3.67;;;11.60;73.80;;;;;;5019828;28;20041;-78
2022/03/19 03:10:08;;;;;;;6.53;3.83;;;11.60;73.80;;;;;;5005041;28;20116;-78
2022/03/19 03:12:34;;;;;;;5.50;3.40;;;11.60;73.80;;;;;;5008793;28;20041;-78
2022/03/19 03:15:00;;;;;;;9.38;4.10;;;11.50;73.70;;;;;;5013456;28;20466;-78
2022/03/19 03:17:26;;;;;;;5.68;3.70;;;11.60;73.70;;;;;;4997791;28;20045;-78
2022/03/19 03:19:52;;;;;;;7.82;4.15;;;11.50;73.70;;;;;;5023501;28;20030;-78
2022/03/19 03:22:18;;;;;;;6.18;3.67;;;11.50;73.80;;;;;;5038180;28;20112;-78
2022/03/19 03:24:44;;;;;;;6.97;3.85;;;11.50;73.80;;;;;;5000104;28;20113;-78
2022/03/19 03:27:09;;;;;;;7.07;3.90;;;11.50;73.70;;;;;;5019815;28;20109;-79
2022/03/19 03:29:35;;;;;;;6.10;4.15;;;11.40;73.70;;;;;;5032440;28;20037;-79
2022/03/19 03:32:01;;;;;;;6.15;3.40;;;11.40;73.70;;;;;;5018977;28;20033;-79
2022/03/19 03:34:26;;;;;;;5.60;3.47;;;11.40;73.80;;;;;;4979463;28;20116;-79
2022/03/19 03:36:53;;;;;;;5.55;3.47;;;11.40;73.80;;;;;;4970521;28;20398;-79
2022/03/19 03:39:20;;;;;;;4.63;2.97;;;11.40;73.80;;;;;;5002916;28;20045;-78
2022/03/19 03:41:47;;;;;;;5.78;3.95;;;11.30;73.80;;;;;;5018671;28;20034;-79
2022/03/19 03:44:13;;;;;;;6.55;3.78;;;11.40;73.90;;;;;;4979424;28;20024;-78
2022/03/19 03:46:39;;;;;;;6.00;3.70;;;11.40;73.90;;;;;;5004598;28;20033;-79
2022/03/19 03:49:05;;;;;;;5.85;3.72;;;11.30;74.00;;;;;;4988795;28;20040;-79
2022/03/19 03:51:31;;;;;;;6.22;3.70;;;11.30;74.00;;;;;;4995474;28;20089;-77
2022/03/19 03:53:57;;;;;;;6.00;3.45;;;11.30;74.00;;;;;;4996854;28;20118;-79
2022/03/19 03:56:22;;;;;;;6.85;3.95;;;11.20;74.00;;;;;;5012996;28;20033;-78
2022/03/19 03:58:49;;;;;;;5.95;3.50;;;11.30;74.10;;;;;;4996792;28;20037;-79
2022/03/19 04:01:16;;;;;;;6.70;4.05;;;11.20;74.10;;;;;;5022214;28;20025;-78
2022/03/19 04:03:42;;;;;;;5.10;3.60;;;11.20;74.00;;;;;;5032144;28;20040;-79
2022/03/19 04:06:07;;;;;;;5.93;3.80;;;11.20;74.00;;;;;;4996174;28;20033;-78
2022/03/19 04:08:33;;;;;;;7.65;3.92;;;11.20;74.00;;;;;;4995831;28;20045;-79
2022/03/19 04:10:59;;;;;;;5.95;3.55;;;11.10;73.90;;;;;;5007983;28;20033;-78
2022/03/19 04:13:25;;;;;;;5.65;3.53;;;11.10;74.00;;;;;;5004981;28;20086;-79
2022/03/19 04:15:51;;;;;;;6.47;3.80;;;11.10;74.00;;;;;;5015654;28;20362;-80
2022/03/19 04:18:17;;;;;;;6.90;3.65;;;11.00;73.90;;;;;;4991480;28;20030;-78
2022/03/19 04:20:43;;;;;;;6.47;3.70;;;11.10;74.00;;;;;;4994749;28;20679;-78
2022/03/19 04:23:09;;;;;;;5.50;3.53;;;11.10;73.90;;;;;;5010104;28;20035;-79
2022/03/19 04:25:35;;;;;;;5.72;3.90;;;11.00;73.90;;;;;;4993395;28;20038;-78
2022/03/19 04:28:01;;;;;;;6.63;3.78;;;11.00;74.00;;;;;;5007000;28;20402;-78
2022/03/19 04:30:28;;;;;;;5.28;3.45;;;11.00;73.90;;;;;;4981492;28;20041;-78
2022/03/19 04:32:57;;;;;;;5.60;3.47;;;10.90;73.80;;;;;;5012752;28;20603;-79
2022/03/19 04:38:12;;;;;;;5.22;3.42;;;10.90;73.80;;;;;;5017605;28;20056;-79
2022/03/19 04:40:40;;;;;;;5.50;3.60;;;10.90;73.80;;;;;;5016104;28;20029;-78
2022/03/19 04:43:07;;;;;;;6.10;3.72;;;10.90;73.80;;;;;;5013609;28;20075;-78
2022/03/19 04:45:34;;;;;;;5.80;3.40;;;10.80;73.80;;;;;;5006020;28;20117;-79
2022/03/19 04:48:00;;;;;;;5.20;3.85;;;10.80;73.80;;;;;;4997011;28;20124;-78
2022/03/19 04:50:26;;;;;;;4.05;3.05;;;10.80;73.80;;;;;;4994196;28;20065;-77
2022/03/19 04:52:53;;;;;;;6.72;4.10;;;10.80;73.80;;;;;;5021127;28;20025;-78
2022/03/19 04:55:21;;;;;;;5.50;3.70;;;10.70;73.70;;;;;;5020151;28;20029;-78
2022/03/19 04:57:48;;;;;;;5.88;3.97;;;10.80;73.80;;;;;;4993797;28;20517;-78
2022/03/19 05:00:17;;;;;;;5.78;3.85;;;10.70;74.40;;;;;;5008247;28;20176;-78
2022/03/19 05:02:44;;;;;;;7.07;4.18;;;10.70;73.80;;;;;;4999365;28;20030;-79
2022/03/19 05:05:10;;;;;;;5.75;4.18;;;10.70;73.80;;;;;;5009808;28;20477;-78
2022/03/19 05:07:37;;;;;;;5.00;3.45;;;10.70;73.70;;;;;;5004835;28;20060;-78
2022/03/19 05:12:52;;;;;;;4.78;3.40;;;10.60;73.70;;;;;;5017402;28;20025;-78
2022/03/19 05:15:20;;;;;;;6.40;3.72;;;10.60;73.70;;;;;;5019688;28;20072;-78
2022/03/19 05:17:46;;;;;;;6.68;4.07;;;10.60;73.70;;;;;;5002874;28;20425;-79
2022/03/19 05:20:13;;;;;;;5.63;3.78;;;10.60;73.70;;;;;;5017075;28;20041;-76
2022/03/19 05:22:39;;;;;;;5.88;3.88;;;10.50;73.60;;;;;;5016921;28;20040;-78
2022/03/19 05:25:06;;;;;;;5.70;3.65;;;10.50;73.70;;;;;;5031780;28;20101;-77
2022/03/19 05:27:32;;;;;;;5.35;3.50;;;10.50;73.70;;;;;;5013120;28;20478;-79
2022/03/19 05:29:58;;;;;;;6.22;3.85;;;10.50;74.30;;;;;;5016657;28;20104;-78
2022/03/19 05:32:24;;;;;;;5.45;3.88;;;10.50;73.60;;;;;;5002297;28;20034;-79
2022/03/19 05:34:51;;;;;;;7.25;3.75;;;10.40;73.60;;;;;;4998522;28;20034;-77
2022/03/19 05:37:17;;;;;;;5.20;3.55;;;10.40;73.60;;;;;;5018631;28;20054;-79
2022/03/19 05:39:43;;;;;;;5.35;3.70;;;10.40;73.60;;;;;;5032184;28;20032;-77
2022/03/19 05:42:11;;;;;;;5.22;3.38;;;10.40;73.60;;;;;;5009275;28;20057;-79
2022/03/19 05:44:37;;;;;;;5.10;3.75;;;10.40;73.60;;;;;;4988540;28;20017;-78
2022/03/19 05:47:03;;;;;;;5.72;3.60;;;10.40;73.60;;;;;;5010905;28;20508;-78
2022/03/19 05:49:30;;;;;;;5.30;3.40;;;10.30;73.60;;;;;;4975464;28;20030;-78
2022/03/19 05:51:57;;;;;;;5.45;3.60;;;10.30;73.60;;;;;;4989422;28;20029;-78
2022/03/19 05:54:25;;;;;;;4.63;3.22;;;10.30;73.60;;;;;;4999688;28;20025;-78
2022/03/19 05:56:51;;;;;;;6.63;3.63;;;10.30;73.60;;;;;;5030389;28;20483;-77
2022/03/19 05:59:19;;;;;;;5.50;3.50;;;10.30;73.60;;;;;;5000958;28;20025;-79
2022/03/19 06:01:45;;;;;;;6.70;3.83;;;10.30;73.60;;;;;;5031296;28;20018;-79
2022/03/19 06:04:11;;;;;;;5.07;3.42;;;10.20;73.60;;;;;;4989226;28;20046;-79
2022/03/19 06:06:36;;;;;;;6.35;3.70;;;10.20;73.60;;;;;;5014910;28;20362;-78
2022/03/19 06:09:03;;;;;;;5.18;3.58;;;10.20;73.60;;;;;;4998779;28;20033;-79
2022/03/19 06:11:29;;;;;;;5.38;3.40;;;10.20;73.60;;;;;;5021272;28;20554;-78
2022/03/19 06:13:55;;;;;;;6.07;3.72;;;10.20;73.60;;;;;;5007925;28;20162;-78
2022/03/19 06:16:21;;;;;;;5.13;3.28;;;10.20;73.70;;;;;;4988492;28;20025;-78
2022/03/19 06:18:50;;;;;;;5.38;3.60;;;10.20;73.60;;;;;;4982992;28;20041;-78
2022/03/19 06:21:17;;;;;;;6.25;3.63;;;10.20;73.60;;;;;;5016321;28;20032;-78
2022/03/19 06:23:46;;;;;;;4.88;3.33;;;10.10;73.60;;;;;;5005041;28;20597;-79
2022/03/19 06:26:14;;;;;;;5.10;3.38;;;10.10;73.60;;;;;;5015774;28;20064;-78
2022/03/19 06:28:40;;;;;;;4.72;3.22;;;10.10;73.60;;;;;;5001449;28;20513;-78
2022/03/19 06:31:05;;;;;;;6.75;3.83;;;10.10;73.60;;;;;;5006322;28;20029;-78
2022/03/19 06:33:32;;;;;;;5.97;3.83;;;10.10;73.60;;;;;;5035514;28;20028;-78
2022/03/19 06:38:42;;;;;;;5.43;3.60;;;10.10;73.60;;;;;;5018267;28;20030;-78
2022/03/19 06:41:09;;;;;;;4.90;3.20;;;10.00;73.50;;;;;;4984178;28;20033;-78
2022/03/19 06:43:35;;;;;;;5.00;3.17;;;10.00;73.60;;;;;;4996766;28;20034;-78
2022/03/19 06:46:01;;;;;;;6.03;3.38;;;10.00;73.60;;;;;;5006354;28;20569;-77
2022/03/19 06:48:27;;;;;;;4.65;3.45;;;10.00;73.70;;;;;;5030462;28;20429;-78
2022/03/19 06:50:54;;;;;;;5.65;3.42;;;10.00;73.70;;;;;;4998633;28;20147;-77
2022/03/19 06:53:20;;;;;;;6.50;3.75;;;9.90;73.60;;;;;;4999674;28;20041;-77
2022/03/19 06:55:46;;;;;;;5.50;3.80;;;10.00;73.70;;;;;;4994615;28;20112;-79
2022/03/19 06:58:12;;;;;;;5.13;3.17;;;9.90;73.60;;;;;;5012684;28;20029;-79
2022/03/19 07:00:40;;;;;;;5.55;3.50;;;9.90;73.60;;;;;;4999965;28;20539;-77
2022/03/19 07:03:06;;;;;;;6.47;3.38;;;9.90;73.60;;;;;;5002558;28;20033;-78
2022/03/19 07:05:31;;;;;;;5.22;3.70;;;9.90;73.70;;;;;;4994163;28;20470;-78
2022/03/19 07:07:58;;;;;;;5.28;3.47;;;9.90;73.60;;;;;;5006278;28;20032;-77
2022/03/19 07:10:24;;;;;;;6.03;3.72;;;9.90;74.30;;;;;;4995564;28;20038;-78
2022/03/19 07:12:53;;;;;;;6.18;3.67;;;9.90;73.60;;;;;;5006354;28;20053;-76
2022/03/19 07:15:21;;;;;;;4.50;3.00;;;9.90;73.60;;;;;;5016800;28;20103;-78
2022/03/19 07:17:50;;;;;;;4.47;3.25;;;9.90;73.60;;;;;;5000686;28;20044;-78
2022/03/19 07:20:15;;;;;;;5.35;3.42;;;9.90;73.60;;;;;;4991869;28;20017;-78
2022/03/19 07:22:54;;;;;;;5.93;3.45;;;9.90;73.70;;;;;;5031251;28;20117;-78
2022/03/19 07:25:22;;;;;;;5.95;3.67;;;9.90;73.70;;;;;;5009051;28;20025;-78
2022/03/19 07:27:54;;;;;;;5.22;3.50;;;9.90;73.60;;;;;;5015220;28;20121;-78
2022/03/19 07:30:20;;;;;;;4.70;3.17;;;9.80;73.60;;;;;;5005514;28;20033;-78
2022/03/19 07:32:47;;;;;;;5.20;3.35;;;9.90;73.60;;;;;;4996704;28;20029;-79
2022/03/19 07:35:14;;;;;;;4.95;3.22;;;9.80;73.60;;;;;;5029797;28;20343;-78
2022/03/19 07:37:41;;;;;;;5.18;3.17;;;9.90;73.70;;;;;;4986041;28;20140;-78
2022/03/19 07:40:08;;;;;;;4.82;3.10;;;9.80;73.60;;;;;;5010621;28;20099;-77
2022/03/19 07:42:35;;;;;;;5.20;2.97;;;9.80;73.60;;;;;;5003615;28;20014;-77
2022/03/19 07:45:02;;;;;;;5.88;3.47;;;9.80;73.60;;;;;;5007435;28;20049;-78
2022/03/19 07:47:29;;;;;;;4.80;2.97;;;9.90;73.70;;;;;;5007957;28;20034;-78
2022/03/19 07:49:55;;;;;;;4.97;3.05;;;9.80;73.60;;;;;;5009670;28;20076;-77
2022/03/19 07:52:21;;;;;;;4.65;2.80;;;9.80;73.60;;;;;;4991016;28;20034;-78
2022/03/19 07:54:47;;;;;;;4.95;3.03;;;9.80;73.60;;;;;;4991200;28;20026;-78
2022/03/19 07:57:13;;;;;;;6.82;3.25;;;9.80;73.60;;;;;;4990788;28;20033;-78
2022/03/19 07:59:40;;;;;;;4.35;3.13;;;9.80;73.70;;;;;;5008417;28;20551;-78
2022/03/19 08:02:06;;;;;;;5.43;3.08;;;9.80;73.60;;;;;;5012404;28;20033;-77
2022/03/19 08:04:31;;;;;;;4.90;3.50;;;9.80;73.60;;;;;;4993997;28;20037;-78
2022/03/19 08:06:57;;;;;;;5.10;3.30;;;9.80;73.60;;;;;;4988591;28;20022;-78
2022/03/19 08:09:24;;;;;;;4.80;3.08;;;9.80;73.70;;;;;;5009423;28;20065;-78
2022/03/19 08:11:51;;;;;;;4.72;3.15;;;9.80;73.70;;;;;;5010278;28;20037;-78
2022/03/19 08:14:18;;;;;;;4.20;3.00;;;9.80;73.70;;;;;;5009992;28;20030;-78
2022/03/19 08:16:45;;;;;;;5.38;3.03;;;9.80;73.70;;;;;;5010610;28;20391;-79
2022/03/19 08:19:11;;;;;;;5.20;2.92;;;9.80;73.70;;;;;;4984999;28;20678;-78
2022/03/19 08:21:38;;;;;;;5.22;3.38;;;9.80;73.70;;;;;;4989453;28;20034;-77
2022/03/19 08:24:08;;;;;;;4.63;2.80;;;9.80;73.70;;;;;;5017869;28;20037;-78
2022/03/19 08:26:34;;;;;;;5.15;3.40;;;9.80;73.70;;;;;;4993178;28;20093;-78
2022/03/19 08:29:02;;;;;;;4.68;2.97;;;9.80;73.70;;;;;;5019449;28;20030;-79
2022/03/19 08:31:28;;;;;;;4.72;3.20;;;9.80;73.80;;;;;;4976969;28;20026;-78
2022/03/19 08:33:55;;;;;;;5.28;2.72;;;9.80;73.70;;;;;;5010085;28;20036;-78
2022/03/19 08:36:21;;;;;;;5.15;3.25;;;9.80;73.80;;;;;;4988262;28;20060;-79
2022/03/19 08:41:31;;;;;;;4.70;2.90;;;9.80;73.80;;;;;;4987503;28;20065;-78
2022/03/19 08:43:58;;;;;;;5.00;2.95;;;9.80;73.70;;;;;;4982638;28;20184;-78
2022/03/19 08:46:24;;;;;;;5.25;3.20;;;9.90;73.80;;;;;;4990165;28;20027;-78
2022/03/19 08:48:50;;;;;;;5.22;3.15;;;9.80;73.80;;;;;;4969932;28;20034;-78
2022/03/19 08:54:00;;;;;;;6.05;2.80;;;9.90;73.90;;;;;;4981580;28;20030;-77
2022/03/19 08:56:26;;;;;;;6.32;2.90;;;9.90;73.90;;;;;;4992283;28;20052;-78
2022/03/19 08:58:52;;;;;;;5.72;3.03;;;9.90;74.00;;;;;;4985717;28;20378;-76
2022/03/19 09:01:19;;;;;;;5.63;3.25;;;9.90;74.00;;;;;;4994200;28;20041;-77
2022/03/19 09:03:45;;;;;;;5.00;3.13;;;9.90;74.00;;;;;;4982657;28;20471;-78
2022/03/19 09:06:14;;;;;;;4.75;3.17;;;10.00;74.00;;;;;;4965608;28;20108;-77
2022/03/19 09:08:41;;;;;;;5.28;3.13;;;10.00;74.00;;;;;;4982166;28;20038;-77
2022/03/19 09:11:07;;;;;;;5.60;3.10;;;10.00;74.00;;;;;;4993015;28;20125;-76
2022/03/19 09:13:33;;;;;;;5.50;3.33;;;10.10;74.60;;;;;;4969927;28;20035;-77
2022/03/19 09:15:59;;;;;;;4.72;2.92;;;10.10;74.00;;;;;;4973956;28;20523;-79
2022/03/19 09:18:26;;;;;;;5.78;3.17;;;10.10;74.00;;;;;;4983714;28;20124;-77
2022/03/19 09:20:52;;;;;;;3.97;2.75;;;10.10;73.90;;;;;;4975271;28;20065;-77
2022/03/19 09:23:18;;;;;;;5.60;3.03;;;10.20;73.90;;;;;;4986421;28;20069;-77
2022/03/19 09:25:43;;;;;;;5.47;3.03;;;10.20;73.80;;;;;;4973828;28;20019;-76
2022/03/19 09:28:09;;;;;;;5.60;2.78;;;10.30;73.80;;;;;;4964436;28;20100;-77
2022/03/19 09:30:35;;;;;;;4.90;3.08;;;10.30;73.70;;;;;;5001827;28;20014;-77
2022/03/19 09:33:01;;;;;;;4.68;2.67;;;10.40;73.80;;;;;;4984998;28;20563;-79
2022/03/19 09:35:27;;;;;;;4.97;2.92;;;10.40;73.70;;;;;;4989542;28;20030;-77
2022/03/19 09:37:52;;;;;;;5.20;2.80;;;10.50;73.70;;;;;;4964962;28;20078;-77
2022/03/19 09:40:19;;;;;;;4.35;2.83;;;10.60;74.30;;;;;;4966588;28;20022;-76
2022/03/19 09:42:53;;;;;;;4.88;2.65;;;10.60;73.70;;;;;;4972905;28;20468;-76
2022/03/19 09:45:21;;;;;;;5.03;2.80;;;10.70;73.70;;;;;;4971805;28;20035;-77
2022/03/19 09:47:48;;;;;;;3.35;2.83;;;10.70;73.50;;;;;;4975978;28;20293;-76
2022/03/19 09:50:14;;;;;;;4.70;2.80;;;10.80;73.50;;;;;;4973147;28;20031;-77
2022/03/19 09:52:42;;;;;;;6.20;3.03;;;10.90;73.50;;;;;;4991824;28;20027;-77
2022/03/19 09:55:16;;;;;;;4.50;2.72;;;10.90;73.40;;;;;;4976076;28;20026;-77
2022/03/19 09:57:43;;;;;;;4.72;2.80;;;11.00;73.40;;;;;;4991913;28;20061;-78
2022/03/19 10:00:10;;;;;;;3.30;2.30;;;11.10;73.30;;;;;;4993590;28;20530;-77
2022/03/19 10:02:56;;;;;;;5.22;2.40;;;11.10;73.10;;;;;;4991667;28;20084;-77
2022/03/19 10:10:55;;;;;;;3.60;2.20;;;11.40;73.10;;;;;;4977283;28;20171;-77
2022/03/19 10:13:22;;;;;;;3.72;2.10;;;11.40;73.00;;;;;;4976141;28;20083;-77
2022/03/19 10:15:48;;;;;;;2.65;2.15;;;11.50;73.00;;;;;;4991970;28;20038;-77
2022/03/19 10:18:14;;;;;;;3.05;2.13;;;11.60;73.00;;;;;;4975980;28;20088;-77
2022/03/19 10:20:40;;;;;;;3.60;2.20;;;11.70;73.00;;;;;;4992016;28;20038;-77
2022/03/19 10:23:06;;;;;;;3.05;1.92;;;11.70;72.90;;;;;;4976040;28;20026;-77
2022/03/19 10:25:32;;;;;;;3.08;1.90;;;11.80;72.90;;;;;;4992163;28;20463;-77
2022/03/19 10:28:11;;;;;;;3.75;2.50;;;11.90;72.90;;;;;;4975871;28;20027;-77
2022/03/19 10:30:39;;;;;;;2.58;2.08;;;12.00;72.90;;;;;;4992315;28;20046;-77
2022/03/19 10:33:09;;;;;;;3.92;2.50;;;12.10;72.80;;;;;;4991946;28;20018;-77
2022/03/19 10:35:41;;;;;;;3.80;2.05;;;12.20;72.90;;;;;;4991768;28;20026;-76
2022/03/19 10:38:26;;;;;;;2.97;2.10;;;12.20;72.80;;;;;;4983937;28;20043;-77
2022/03/19 10:40:53;;;;;;;2.90;1.97;;;12.30;72.80;;;;;;4990824;28;20142;-78
2022/03/19 10:43:22;;;;;;;3.63;2.17;;;12.40;72.70;;;;;;4975560;28;20521;-76
2022/03/19 10:45:50;;;;;;;3.25;2.03;;;12.50;72.60;;;;;;4992947;28;20030;-77
2022/03/19 10:48:28;;;;;;;3.25;2.03;;;12.60;72.60;;;;;;4992597;28;20027;-77
2022/03/19 10:50:55;;;;;;;3.50;2.15;;;12.70;72.60;;;;;;4977052;28;20036;-77
2022/03/19 10:53:22;;;;;;;2.58;1.92;;;12.80;72.50;;;;;;4972392;28;20030;-77
2022/03/19 10:55:48;;;;;;;3.00;2.30;;;12.90;72.50;;;;;;4983532;28;20038;-77
2022/03/19 10:58:14;;;;;;;2.70;1.95;;;12.90;72.40;;;;;;4975042;28;20331;-76
2022/03/19 11:00:41;;;;;;;2.97;1.92;;;13.00;72.40;;;;;;4975099;28;20061;-76
2022/03/19 11:03:12;;;;;;;4.55;2.00;;;13.10;72.30;;;;;;4991174;28;20022;-76
2022/03/19 11:05:39;;;;;;;3.08;1.80;;;13.20;72.30;;;;;;4990631;28;20026;-76
2022/03/19 11:08:07;;;;;;;3.35;1.90;;;13.30;72.30;;;;;;4974768;28;20027;-77
2022/03/19 11:10:35;;;;;;;2.03;1.75;;;13.40;72.30;;;;;;4982463;28;20077;-78
2022/03/19 11:13:03;;;;;;;3.70;2.15;;;13.50;72.20;;;;;;4974006;28;20034;-78
2022/03/19 11:15:33;;;;;;;3.67;2.08;;;13.50;72.10;;;;;;4974748;28;20081;-77
2022/03/19 11:18:05;;;;;;;2.53;1.65;;;13.60;72.00;;;;;;4991276;28;20522;-77
2022/03/19 11:20:31;;;;;;;3.08;1.52;;;13.80;72.00;;;;;;4982748;28;20026;-78
2022/03/19 11:22:59;;;;;;;3.30;2.03;;;13.80;71.90;;;;;;4990926;28;20467;-78
2022/03/19 11:25:31;;;;;;;3.30;1.70;;;13.90;71.80;;;;;;4974635;28;20030;-77
2022/03/19 11:28:06;;;;;;;3.67;2.05;;;14.00;71.70;;;;;;4990849;28;20500;-76
2022/03/19 11:30:36;;;;;;;2.45;1.63;;;14.00;71.60;;;;;;4985064;28;20074;-77
2022/03/19 11:33:09;;;;;;;3.28;1.60;;;14.10;71.60;;;;;;4966667;28;20094;-79
2022/03/19 11:35:39;;;;;;;2.08;1.60;;;14.20;71.70;;;;;;4991382;28;20379;-77
2022/03/19 11:38:16;;;;;;;2.25;1.52;;;14.30;71.70;;;;;;4990689;28;20141;-77
2022/03/19 11:40:47;;;;;;;2.25;1.73;;;14.30;71.60;;;;;;4989046;28;20065;-77
2022/03/19 11:43:39;;;;;;;2.35;1.67;;;14.40;71.60;;;;;;4989214;28;20041;-77
2022/03/19 11:46:06;;;;;;;1.88;1.60;;;14.50;71.70;;;;;;4972629;28;20293;-78
2022/03/19 11:48:37;;;;;;;2.08;1.55;;;14.50;71.50;;;;;;4974749;28;20481;-78
2022/03/19 11:51:13;;;;;;;1.75;1.52;;;14.60;71.50;;;;;;4989282;28;20467;-78
2022/03/19 11:54:01;;;;;;;1.63;1.40;;;14.60;71.50;;;;;;4982441;28;20026;-77
2022/03/19 11:56:35;;;;;;;1.70;1.40;;;14.70;71.60;;;;;;4991318;28;20470;-78
2022/03/19 11:59:04;;;;;;;1.80;1.48;;;14.80;71.50;;;;;;4986720;28;20056;-77
2022/03/19 12:01:48;;;;;;;1.75;1.30;;;14.80;71.40;;;;;;4979180;28;20054;-77
2022/03/19 12:04:15;;;;;;;2.58;1.55;;;14.90;71.50;;;;;;4989722;28;20024;-77
2022/03/19 12:06:52;;;;;;;2.35;1.50;;;14.90;71.30;;;;;;4967786;28;20061;-77
2022/03/19 12:09:19;;;;;;;2.60;1.40;;;15.00;71.50;;;;;;4995217;28;20484;-77
2022/03/19 12:12:16;;;;;;;1.90;1.30;;;15.00;71.40;;;;;;4973490;28;20114;-77
2022/03/19 12:14:43;;;;;;;2.47;1.60;;;15.10;71.60;;;;;;4985131;28;20035;-77
2022/03/19 12:17:20;;;;;;;2.08;1.40;;;15.10;71.40;;;;;;4996079;28;20013;-78
2022/03/19 12:20:00;;;;;;;1.85;1.30;;;15.10;71.50;;;;;;5003555;28;20513;-76
2022/03/19 12:22:26;;;;;;;1.95;1.27;;;15.20;71.40;;;;;;4966793;28;20038;-77
2022/03/19 12:25:14;;;;;;;1.75;1.48;;;15.20;71.30;;;;;;4983153;28;20034;-77
2022/03/19 12:27:41;;;;;;;1.52;1.35;;;15.30;71.30;;;;;;4991278;28;20125;-77
2022/03/19 12:30:09;;;;;;;2.30;1.30;;;15.30;71.20;;;;;;4995652;28;20026;-77
2022/03/19 12:33:04;;;;;;;2.50;1.70;;;15.40;71.10;;;;;;4991651;28;20076;-78
2022/03/19 12:35:46;;;;;;;1.77;1.42;;;15.40;71.10;;;;;;4981507;28;20050;-77
2022/03/19 12:38:27;;;;;;;1.52;1.13;;;15.40;70.90;;;;;;4996368;28;20132;-79
2022/03/19 12:43:38;;;;;;;1.63;1.30;;;15.50;70.80;;;;;;4991532;28;20125;-79
2022/03/19 12:46:05;;;;;;;2.28;1.48;;;15.50;70.80;;;;;;4981952;28;20010;-76
2022/03/19 12:48:32;;;;;;;1.45;1.10;;;15.50;70.80;;;;;;4974040;28;20110;-76
2022/03/19 12:50:58;;;;;;;1.80;1.30;;;15.60;70.80;;;;;;4991565;28;20124;-78
2022/03/19 12:53:36;;;;;;;1.83;1.20;;;15.60;70.70;;;;;;4985363;28;20031;-76
2022/03/19 12:56:14;;;;;;;1.13;1.08;;;15.70;70.80;;;;;;4972289;28;20087;-79
2022/03/19 12:58:42;;;;;;;1.67;1.10;;;15.70;70.80;;;;;;5001179;28;20033;-77
2022/03/19 13:01:11;;;;;;;2.00;1.25;;;15.80;70.60;;;;;;4989629;28;20382;-77
2022/03/19 13:03:37;;;;;;;1.42;1.25;;;15.70;69.90;;;;;;4983106;28;20026;-76
2022/03/19 13:06:03;;;;;;;2.42;1.30;;;15.80;69.60;;;;;;4988442;28;20034;-77
2022/03/19 13:08:28;;;;;;;2.35;1.48;;;15.80;69.50;;;;;;4968112;28;20484;-76
2022/03/19 13:10:54;;;;;;;2.15;1.50;;;15.80;69.50;;;;;;4961856;28;20136;-76
2022/03/19 13:13:21;;;;;;;2.53;1.50;;;15.90;69.80;;;;;;4976901;28;20092;-76
2022/03/19 13:15:52;;;;;;;2.67;1.30;;;15.90;69.70;;;;;;4992761;28;20109;-76